Time;durP1;ratioP1;P1;durP2;ratioP2;P2;SDS_P1;SDS_P2;PMS_P1;PMS_P2;Temp;Humidity;BMP_temperature;BMP_pressure;BME280_temperature;BME280_humidity;BME280_pressure;Samples;Min_cycle;Max_cycle;Signal;HPM_P1;HPM_P2
2022/07/24 00:01:45;;;;;;;1.05;0.93;;;;;;;16.15;56.45;101399.69;7400513;19;20027;-67
2022/07/24 00:04:13;;;;;;;3.78;1.15;;;;;;;16.05;56.42;101400.00;7397416;19;20015;-68
2022/07/24 00:06:42;;;;;;;5.32;1.08;;;;;;;16.00;56.86;101404.59;7397119;19;20031;-66
2022/07/24 00:09:11;;;;;;;4.20;1.17;;;;;;;15.94;56.84;101400.34;7400447;19;20409;-68
2022/07/24 00:11:42;;;;;;;1.15;1.00;;;;;;;15.93;57.15;101400.41;7399425;19;20095;-68
2022/07/24 00:14:11;;;;;;;1.58;1.02;;;;;;;15.91;57.01;101410.19;7399638;19;20034;-67
2022/07/24 00:16:40;;;;;;;3.15;1.30;;;;;;;15.84;57.34;101401.59;7399662;19;20086;-67
2022/07/24 00:19:08;;;;;;;1.48;1.38;;;;;;;15.76;57.51;101399.16;7399872;19;20028;-67
2022/07/24 00:21:37;;;;;;;4.45;1.33;;;;;;;15.73;57.75;101408.97;7399464;19;20019;-66
2022/07/24 00:24:07;;;;;;;2.15;1.10;;;;;;;15.71;57.81;101410.81;7397509;19;20022;-67
2022/07/24 00:26:37;;;;;;;2.72;1.48;;;;;;;15.70;58.01;101411.75;7399588;19;20038;-67
2022/07/24 00:29:08;;;;;;;1.77;1.50;;;;;;;15.67;58.38;101419.75;7397158;19;20023;-68
2022/07/24 00:31:36;;;;;;;1.95;1.50;;;;;;;15.63;58.32;101422.53;7400056;19;20090;-67
2022/07/24 00:34:05;;;;;;;2.80;1.60;;;;;;;15.59;58.45;101423.50;7400367;19;20126;-67
2022/07/24 00:36:33;;;;;;;1.67;1.42;;;;;;;15.58;58.78;101424.44;7399882;19;20015;-67
2022/07/24 00:39:02;;;;;;;1.73;1.38;;;;;;;15.57;58.83;101425.34;7397805;19;20007;-68
2022/07/24 00:41:31;;;;;;;2.55;1.52;;;;;;;15.54;59.02;101428.09;7399346;19;20010;-67
2022/07/24 00:44:10;;;;;;;2.38;1.50;;;;;;;15.50;59.04;101426.47;7399907;19;20041;-67
2022/07/24 00:46:40;;;;;;;2.25;1.55;;;;;;;15.44;59.31;101426.66;7399810;19;20022;-67
2022/07/24 00:49:11;;;;;;;2.00;1.80;;;;;;;15.39;59.59;101428.56;7397123;19;20019;-67
2022/07/24 00:51:39;;;;;;;2.47;1.65;;;;;;;15.37;59.59;101423.34;7396738;19;20031;-67
2022/07/24 00:54:09;;;;;;;3.65;1.92;;;;;;;15.34;59.87;101431.34;7399128;19;20545;-67
2022/07/24 00:56:38;;;;;;;2.88;1.98;;;;;;;15.30;60.25;101433.25;7398957;19;20007;-67
2022/07/24 00:59:10;;;;;;;2.95;2.00;;;;;;;15.27;60.34;101432.47;7399256;19;20035;-67
2022/07/24 01:01:45;;;;;;;2.53;2.30;;;;;;;15.22;60.25;101439.69;7397625;19;20074;-67
2022/07/24 01:04:14;;;;;;;3.17;2.08;;;;;;;15.15;60.53;101442.50;7397611;19;20031;-66
2022/07/24 01:06:43;;;;;;;1.95;1.85;;;;;;;15.07;60.95;101444.47;7399084;19;20477;-66
2022/07/24 01:09:12;;;;;;;1.83;1.73;;;;;;;15.02;60.77;101448.19;7397176;19;20039;-67
2022/07/24 01:11:41;;;;;;;3.08;2.22;;;;;;;14.95;61.26;101451.00;7398575;19;20042;-67
2022/07/24 01:14:13;;;;;;;2.25;2.05;;;;;;;14.91;61.15;101449.38;7399382;19;20019;-67
2022/07/24 01:16:42;;;;;;;3.35;1.90;;;;;;;14.81;61.22;101440.84;7397979;19;20031;-68
2022/07/24 01:19:10;;;;;;;3.58;2.00;;;;;;;14.79;61.67;101450.56;7398406;19;20014;-67
2022/07/24 01:21:47;;;;;;;3.08;2.72;;;;;;;14.74;61.63;101452.47;7396580;19;20022;-68
2022/07/24 01:24:15;;;;;;;3.17;1.80;;;;;;;14.69;61.75;101456.16;7396438;19;20022;-67
2022/07/24 01:26:44;;;;;;;2.67;2.22;;;;;;;14.63;61.99;101454.50;7397876;19;20022;-67
2022/07/24 01:29:13;;;;;;;4.47;2.30;;;;;;;14.58;62.15;101448.50;7395644;19;20015;-67
2022/07/24 01:31:41;;;;;;;3.53;1.90;;;;;;;14.52;62.42;101452.19;7397597;19;20015;-66
2022/07/24 01:34:10;;;;;;;3.05;2.10;;;;;;;14.45;62.55;101451.44;7397841;19;20022;-67
2022/07/24 01:36:38;;;;;;;3.90;2.25;;;;;;;14.41;62.78;101452.44;7397253;19;20086;-67
2022/07/24 01:39:09;;;;;;;2.05;1.83;;;;;;;14.36;63.08;101458.78;7395147;19;20043;-67
2022/07/24 01:41:38;;;;;;;2.40;2.15;;;;;;;14.31;62.89;101465.00;7397673;19;20031;-67
2022/07/24 01:44:07;;;;;;;2.35;1.92;;;;;;;14.26;63.36;101461.63;7396898;19;20010;-67
2022/07/24 01:46:35;;;;;;;3.63;1.85;;;;;;;14.22;63.23;101456.50;7397063;19;20018;-66
2022/07/24 01:49:04;;;;;;;3.10;2.22;;;;;;;14.16;63.78;101461.00;7395314;19;20010;-67
2022/07/24 01:51:32;;;;;;;4.97;2.30;;;;;;;14.12;63.80;101456.69;7396550;19;20022;-67
2022/07/24 01:54:02;;;;;;;4.45;2.40;;;;;;;14.08;64.08;101459.44;7396892;19;20031;-67
2022/07/24 01:56:33;;;;;;;2.55;1.88;;;;;;;14.05;63.93;101459.53;7395264;19;20026;-66
2022/07/24 01:59:02;;;;;;;2.20;2.00;;;;;;;14.02;64.02;101463.13;7397953;19;20018;-67
2022/07/24 02:01:31;;;;;;;2.75;1.95;;;;;;;13.98;64.22;101472.03;7394859;19;20427;-67
2022/07/24 02:03:59;;;;;;;2.35;2.08;;;;;;;13.96;64.50;101468.53;7396610;19;20078;-67
2022/07/24 02:06:28;;;;;;;5.80;2.33;;;;;;;13.95;64.55;101474.72;7394712;19;20022;-66
2022/07/24 02:08:56;;;;;;;3.65;2.10;;;;;;;13.92;64.57;101473.03;7394496;19;20083;-67
2022/07/24 02:11:25;;;;;;;1.88;1.77;;;;;;;13.88;64.74;101471.38;7394521;19;20032;-67
2022/07/24 02:13:56;;;;;;;2.25;2.10;;;;;;;13.85;64.66;101474.09;7395849;19;20485;-67
2022/07/24 02:16:25;;;;;;;3.70;2.22;;;;;;;13.82;64.79;101469.72;7394880;19;20015;-67
2022/07/24 02:18:54;;;;;;;2.13;1.92;;;;;;;13.81;65.09;101473.28;7394413;19;20015;-66
2022/07/24 02:21:22;;;;;;;3.47;1.88;;;;;;;13.77;65.08;101468.13;7394550;19;20485;-66
2022/07/24 02:23:51;;;;;;;3.22;2.35;;;;;;;13.74;65.11;101465.56;7395170;19;20514;-67
2022/07/24 02:26:20;;;;;;;3.50;2.15;;;;;;;13.70;65.09;101464.78;7395730;19;20015;-69
2022/07/24 02:28:58;;;;;;;2.22;2.03;;;;;;;13.66;65.33;101456.06;7393614;19;20389;-67
2022/07/24 02:31:26;;;;;;;2.35;2.08;;;;;;;13.61;65.33;101457.06;7395203;19;20014;-67
2022/07/24 02:33:55;;;;;;;4.38;2.42;;;;;;;13.58;65.46;101463.25;7393711;19;20018;-67
2022/07/24 02:36:23;;;;;;;2.70;2.08;;;;;;;13.53;65.65;101462.50;7395240;19;20032;-67
2022/07/24 02:38:52;;;;;;;3.17;1.90;;;;;;;13.46;65.86;101467.06;7393144;19;20023;-67
2022/07/24 02:41:20;;;;;;;2.05;1.85;;;;;;;13.40;65.89;101472.47;7395313;19;20077;-67
2022/07/24 02:43:49;;;;;;;5.18;2.13;;;;;;;13.34;65.81;101475.19;7395007;19;20027;-67
2022/07/24 02:46:20;;;;;;;4.32;1.90;;;;;;;13.29;66.35;101469.16;7395280;19;20082;-67
2022/07/24 02:48:48;;;;;;;2.20;2.00;;;;;;;13.24;66.26;101471.03;7393686;19;20047;-67
2022/07/24 02:51:17;;;;;;;2.33;2.10;;;;;;;13.18;66.42;101462.34;7395111;19;20091;-67
2022/07/24 02:53:46;;;;;;;3.25;1.88;;;;;;;13.14;66.74;101471.22;7395117;19;20010;-67
2022/07/24 02:56:14;;;;;;;2.03;1.77;;;;;;;13.10;66.58;101466.03;7394927;19;20031;-67
2022/07/24 02:58:43;;;;;;;2.08;1.83;;;;;;;13.07;66.83;101480.16;7393542;19;20027;-67
2022/07/24 03:01:11;;;;;;;2.00;1.77;;;;;;;13.03;66.88;101468.81;7394379;19;20031;-67
2022/07/24 03:03:42;;;;;;;2.85;1.65;;;;;;;12.99;66.98;101474.16;7392668;19;20368;-67
2022/07/24 03:06:11;;;;;;;4.30;2.05;;;;;;;12.94;67.23;101482.16;7394474;19;20038;-67
2022/07/24 03:08:39;;;;;;;6.72;1.95;;;;;;;12.89;67.36;101478.75;7392925;19;20035;-67
2022/07/24 03:11:08;;;;;;;1.80;1.70;;;;;;;12.86;67.50;101478.81;7394581;19;20384;-67
2022/07/24 03:13:36;;;;;;;2.08;1.80;;;;;;;12.80;67.68;101485.06;7394470;19;20415;-67
2022/07/24 03:16:06;;;;;;;3.13;1.92;;;;;;;12.74;67.82;101484.28;7394470;19;20041;-67
2022/07/24 03:18:34;;;;;;;1.88;1.75;;;;;;;12.73;67.83;101491.34;7392812;19;20010;-67
2022/07/24 03:21:06;;;;;;;1.80;1.55;;;;;;;12.70;68.01;101488.75;7394064;19;20450;-67
2022/07/24 03:23:34;;;;;;;1.92;1.83;;;;;;;12.67;68.26;101489.66;7392418;19;20074;-67
2022/07/24 03:26:03;;;;;;;2.17;1.95;;;;;;;12.65;68.27;101490.59;7394172;19;20028;-67
2022/07/24 03:28:32;;;;;;;2.08;1.88;;;;;;;12.63;68.33;101489.78;7392551;19;20018;-67
2022/07/24 03:31:01;;;;;;;2.60;1.90;;;;;;;12.59;68.41;101494.22;7392222;19;20015;-67
2022/07/24 03:33:29;;;;;;;3.45;1.52;;;;;;;12.57;68.63;101487.25;7393753;19;20027;-67
2022/07/24 03:35:58;;;;;;;2.75;1.83;;;;;;;12.53;68.73;101497.81;7393964;19;20023;-67
2022/07/24 03:38:29;;;;;;;2.33;1.88;;;;;;;12.51;68.84;101493.47;7392021;19;20006;-67
2022/07/24 03:40:57;;;;;;;2.50;1.98;;;;;;;12.49;68.88;101500.56;7394881;19;20014;-67
2022/07/24 03:43:26;;;;;;;3.38;1.90;;;;;;;12.46;68.95;101498.84;7393232;19;20366;-66
2022/07/24 03:45:54;;;;;;;3.25;1.83;;;;;;;12.44;68.95;101495.38;7396656;19;20075;-66
2022/07/24 03:48:23;;;;;;;3.50;1.95;;;;;;;12.39;69.06;101498.06;7398058;19;20019;-67
2022/07/24 03:50:52;;;;;;;3.38;2.15;;;;;;;12.39;69.08;101497.22;7397928;19;20022;-67
2022/07/24 03:53:20;;;;;;;3.70;1.60;;;;;;;12.37;69.06;101502.50;7400600;19;20035;-66
2022/07/24 03:55:51;;;;;;;2.97;1.70;;;;;;;12.36;69.24;101506.03;7397964;19;20585;-67
2022/07/24 03:58:19;;;;;;;2.25;1.63;;;;;;;12.34;69.27;101502.53;7398639;19;20525;-66
2022/07/24 04:00:48;;;;;;;3.25;2.25;;;;;;;12.35;69.20;101508.69;7400758;19;20022;-67
2022/07/24 04:03:16;;;;;;;2.17;1.95;;;;;;;12.34;69.22;101504.31;7400694;19;20079;-67
2022/07/24 04:05:45;;;;;;;3.80;2.10;;;;;;;12.32;69.58;101509.63;7400588;19;20019;-67
2022/07/24 04:08:13;;;;;;;6.78;4.13;;;;;;;12.34;69.68;101507.81;7398459;19;20485;-67
2022/07/24 04:10:42;;;;;;;5.10;3.53;;;;;;;12.34;69.59;101513.06;7397934;19;20086;-66
2022/07/24 04:13:13;;;;;;;8.98;5.93;;;;;;;12.35;69.75;101517.44;7397906;19;20018;-67
2022/07/24 04:15:42;;;;;;;4.13;3.33;;;;;;;12.38;69.71;101508.63;7399970;19;20505;-67
2022/07/24 04:18:10;;;;;;;3.65;2.45;;;;;;;12.39;69.92;101505.09;7397264;19;20424;-67
2022/07/24 04:20:39;;;;;;;4.00;2.63;;;;;;;12.41;69.84;101510.34;7397628;19;20028;-67
2022/07/24 04:23:07;;;;;;;3.72;2.28;;;;;;;12.43;70.02;101511.19;7397212;19;20031;-67
2022/07/24 04:25:35;;;;;;;2.92;2.63;;;;;;;12.46;70.04;101517.28;7399204;19;20028;-67
2022/07/24 04:28:04;;;;;;;7.60;2.80;;;;;;;12.48;69.98;101523.34;7398287;19;20029;-67
2022/07/24 04:30:36;;;;;;;3.05;2.42;;;;;;;12.53;70.27;101524.16;7397649;19;20031;-67
2022/07/24 04:33:04;;;;;;;5.00;2.28;;;;;;;12.55;70.17;101511.84;7397084;19;20014;-68
2022/07/24 04:35:33;;;;;;;2.88;2.60;;;;;;;12.59;70.02;101512.66;7399304;19;20517;-68
2022/07/24 04:38:02;;;;;;;3.70;1.90;;;;;;;12.62;70.14;101507.31;7397268;19;21536;-67
2022/07/24 04:40:30;;;;;;;4.45;2.08;;;;;;;12.65;70.03;101512.53;7399291;19;20036;-67
2022/07/24 04:42:59;;;;;;;2.33;2.10;;;;;;;12.70;70.16;101510.69;7399537;19;20481;-67
2022/07/24 04:45:28;;;;;;;3.38;2.40;;;;;;;12.74;70.12;101518.53;7396569;19;20510;-67
2022/07/24 04:47:59;;;;;;;2.25;1.90;;;;;;;12.78;70.23;101515.81;7398053;19;20082;-67
2022/07/24 04:50:27;;;;;;;2.55;1.80;;;;;;;12.81;70.00;101514.88;7396958;19;20011;-67
2022/07/24 04:52:56;;;;;;;3.20;2.20;;;;;;;12.86;70.03;101519.19;7398514;19;20510;-67
2022/07/24 04:55:24;;;;;;;3.60;2.03;;;;;;;12.91;70.03;101523.50;7398484;19;20482;-67
2022/07/24 04:57:53;;;;;;;3.67;2.05;;;;;;;12.95;69.99;101527.78;7395235;19;20035;-67
2022/07/24 05:00:22;;;;;;;2.83;1.85;;;;;;;13.00;69.98;101521.56;7398765;19;20015;-68
2022/07/24 05:02:50;;;;;;;1.80;1.70;;;;;;;13.05;70.06;101516.19;7398447;19;20019;-67
2022/07/24 05:05:21;;;;;;;3.92;1.90;;;;;;;13.12;69.89;101520.44;7396426;19;20078;-67
2022/07/24 05:07:50;;;;;;;2.67;2.10;;;;;;;13.18;69.78;101517.69;7396606;19;20015;-67
2022/07/24 05:10:18;;;;;;;2.85;1.77;;;;;;;13.25;69.80;101512.28;7396815;19;20023;-67
2022/07/24 05:12:47;;;;;;;2.83;2.08;;;;;;;13.30;69.77;101515.69;7398428;19;20070;-67
2022/07/24 05:15:15;;;;;;;3.33;2.05;;;;;;;13.38;69.76;101521.69;7397622;19;20015;-67
2022/07/24 05:17:44;;;;;;;3.60;1.90;;;;;;;13.44;69.54;101518.06;7396192;19;20485;-67
2022/07/24 05:20:13;;;;;;;2.85;1.70;;;;;;;13.51;69.64;101520.53;7397255;19;20040;-67
2022/07/24 05:23:05;;;;;;;3.03;1.85;;;;;;;13.61;69.38;101515.06;7398490;19;20010;-67
2022/07/24 05:25:34;;;;;;;3.97;2.17;;;;;;;13.69;69.22;101513.13;7395669;19;20018;-67
2022/07/24 05:28:03;;;;;;;3.42;1.65;;;;;;;13.78;69.15;101509.41;7396318;19;20032;-67
2022/07/24 05:30:31;;;;;;;3.92;1.80;;;;;;;13.86;68.90;101510.09;7395605;19;20029;-67
2022/07/24 05:33:00;;;;;;;2.42;1.65;;;;;;;13.95;68.70;101516.94;7395544;19;20022;-67
2022/07/24 05:35:28;;;;;;;5.13;1.67;;;;;;;14.03;68.64;101509.72;7397093;19;20027;-66
2022/07/24 05:38:03;;;;;;;2.17;1.80;;;;;;;14.12;68.12;101503.34;7395569;19;20031;-66
2022/07/24 05:40:40;;;;;;;1.65;1.38;;;;;;;14.22;68.14;101509.28;7397667;19;20170;-67
2022/07/24 05:43:09;;;;;;;1.73;1.33;;;;;;;14.29;67.73;101498.53;7397593;19;20022;-67
2022/07/24 05:45:37;;;;;;;1.88;1.38;;;;;;;14.38;67.65;101500.06;7395470;19;20023;-67
2022/07/24 05:48:07;;;;;;;4.00;1.60;;;;;;;14.46;67.11;101511.28;7396107;19;20039;-66
2022/07/24 05:50:35;;;;;;;2.20;1.42;;;;;;;14.55;66.58;101509.31;7395514;19;20378;-67
2022/07/24 05:53:04;;;;;;;1.92;1.10;;;;;;;14.64;66.25;101511.72;7396960;19;20022;-67
2022/07/24 05:55:32;;;;;;;3.65;1.83;;;;;;;14.73;66.07;101508.00;7394812;19;20542;-67
2022/07/24 05:58:04;;;;;;;1.42;1.20;;;;;;;14.82;65.84;101520.94;7395378;19;20365;-67
2022/07/24 06:00:33;;;;;;;2.22;1.15;;;;;;;14.88;65.42;101520.78;7394610;19;20011;-67
2022/07/24 06:03:01;;;;;;;1.33;0.98;;;;;;;14.96;65.47;101520.56;7396615;19;20018;-67
2022/07/24 06:05:29;;;;;;;5.25;1.67;;;;;;;15.03;65.06;101514.19;7396549;19;20035;-66
2022/07/24 06:07:58;;;;;;;2.50;1.33;;;;;;;15.10;64.93;101523.69;7394261;19;20015;-67
2022/07/24 06:10:27;;;;;;;3.40;1.70;;;;;;;15.19;64.64;101526.97;7394983;19;20023;-67
2022/07/24 06:12:55;;;;;;;1.48;1.17;;;;;;;15.25;64.47;101518.88;7396209;19;20032;-67
2022/07/24 06:15:26;;;;;;;5.03;1.30;;;;;;;15.31;63.31;101521.34;7396333;19;20017;-67
2022/07/24 06:17:55;;;;;;;2.00;1.50;;;;;;;15.38;63.52;101514.97;7395491;19;20039;-67
2022/07/24 06:20:23;;;;;;;2.38;1.20;;;;;;;15.45;63.33;101513.84;7396126;19;20081;-67
2022/07/24 06:22:52;;;;;;;3.05;1.50;;;;;;;15.54;62.90;101517.16;7395877;19;20014;-67
2022/07/24 06:25:21;;;;;;;1.92;1.00;;;;;;;15.62;62.71;101509.84;7394132;19;20031;-67
2022/07/24 06:27:51;;;;;;;1.77;1.33;;;;;;;15.69;62.54;101506.09;7393683;19;20031;-67
2022/07/24 06:30:21;;;;;;;4.13;1.67;;;;;;;15.74;62.14;101496.22;7394822;19;20078;-68
2022/07/24 06:32:54;;;;;;;2.20;1.33;;;;;;;15.83;62.13;101499.53;7393702;19;20036;-66
2022/07/24 06:35:23;;;;;;;3.78;1.50;;;;;;;15.88;61.87;101509.06;7395386;19;20485;-67
2022/07/24 06:37:52;;;;;;;4.22;1.70;;;;;;;15.95;61.82;101502.66;7393360;19;20477;-67
2022/07/24 06:40:21;;;;;;;1.80;1.13;;;;;;;16.03;61.68;101506.84;7394983;19;20022;-68
2022/07/24 06:42:51;;;;;;;3.95;1.90;;;;;;;16.10;61.43;101506.59;7395413;19;20474;-67
2022/07/24 06:45:19;;;;;;;1.83;1.30;;;;;;;16.17;61.24;101501.09;7395186;19;20054;-66
2022/07/24 06:47:48;;;;;;;2.40;1.13;;;;;;;16.25;61.11;101502.56;7393924;19;20474;-67
2022/07/24 06:50:19;;;;;;;3.20;1.70;;;;;;;16.31;60.74;101501.50;7393438;19;20087;-67
2022/07/24 06:52:48;;;;;;;2.63;1.58;;;;;;;16.37;60.94;101498.63;7394793;19;20510;-67
2022/07/24 06:55:16;;;;;;;2.33;0.88;;;;;;;16.45;60.59;101501.03;7393509;19;20023;-66
2022/07/24 06:57:45;;;;;;;3.35;1.20;;;;;;;16.52;60.04;101507.00;7393691;19;20486;-67
2022/07/24 07:00:14;;;;;;;3.58;1.10;;;;;;;16.58;60.09;101498.81;7394827;19;20078;-66
2022/07/24 07:02:43;;;;;;;2.05;1.00;;;;;;;16.66;59.97;101502.06;7392768;19;20435;-66
2022/07/24 07:05:12;;;;;;;1.67;1.20;;;;;;;16.74;59.71;101502.69;7394814;19;20019;-66
2022/07/24 07:07:43;;;;;;;6.30;1.02;;;;;;;16.83;59.55;101505.91;7393314;19;20509;-66
2022/07/24 07:10:12;;;;;;;2.80;1.10;;;;;;;16.91;59.54;101514.50;7394118;19;20021;-67
2022/07/24 07:12:42;;;;;;;2.97;1.00;;;;;;;16.99;59.43;101515.06;7394529;19;20039;-68
2022/07/24 07:15:11;;;;;;;4.43;1.20;;;;;;;17.08;59.05;101503.25;7394809;19;20027;-67
2022/07/24 07:17:41;;;;;;;1.98;0.95;;;;;;;17.19;58.60;101508.16;7393014;19;20461;-67
2022/07/24 07:20:11;;;;;;;1.73;0.88;;;;;;;17.28;58.53;101507.81;7392992;19;20427;-67
2022/07/24 07:22:42;;;;;;;2.67;0.73;;;;;;;17.39;58.49;101515.38;7401468;19;20492;-67
2022/07/24 07:25:12;;;;;;;1.65;0.90;;;;;;;17.50;57.70;101501.69;7399046;19;20019;-67
2022/07/24 07:27:41;;;;;;;1.77;0.90;;;;;;;17.59;57.40;101503.97;7399686;19;20014;-67
2022/07/24 07:30:12;;;;;;;1.98;0.90;;;;;;;17.68;57.25;101511.59;7400264;19;20041;-67
2022/07/24 07:32:40;;;;;;;3.22;1.15;;;;;;;17.80;56.91;101514.69;7398572;19;20022;-67
2022/07/24 07:35:10;;;;;;;2.33;0.80;;;;;;;17.89;56.65;101514.31;7401366;19;20022;-67
2022/07/24 07:37:38;;;;;;;3.55;0.95;;;;;;;17.99;56.36;101507.72;7400067;19;20035;-67
2022/07/24 07:40:11;;;;;;;1.77;0.80;;;;;;;18.07;55.95;101500.31;7398195;19;20023;-67
2022/07/24 07:42:39;;;;;;;7.28;5.35;;;;;;;18.16;56.03;101500.84;7401654;19;20430;-67
2022/07/24 07:45:09;;;;;;;4.43;2.75;;;;;;;18.22;55.74;101506.78;7400995;19;20018;-67
2022/07/24 07:47:38;;;;;;;1.67;1.20;;;;;;;18.33;55.15;101508.13;7399361;19;20014;-66
2022/07/24 07:50:07;;;;;;;2.05;0.95;;;;;;;18.36;55.19;101498.25;7399725;19;20014;-66
2022/07/24 07:52:36;;;;;;;4.60;0.70;;;;;;;18.46;55.17;101503.16;7400606;19;20379;-65
2022/07/24 07:55:05;;;;;;;3.08;1.00;;;;;;;18.51;54.31;101496.72;7400653;19;20019;-66
2022/07/24 07:57:37;;;;;;;2.58;1.23;;;;;;;18.59;54.58;101507.00;7399113;19;20022;-65
2022/07/24 08:00:07;;;;;;;4.43;1.30;;;;;;;18.66;54.04;101497.81;7397377;19;20481;-66
2022/07/24 08:02:35;;;;;;;6.60;4.18;;;;;;;18.75;53.75;101499.22;7400773;19;20428;-66
2022/07/24 08:05:03;;;;;;;2.20;1.10;;;;;;;18.84;53.57;101500.59;7400074;19;20031;-66
2022/07/24 08:07:32;;;;;;;3.10;1.10;;;;;;;18.89;53.51;101495.94;7398970;19;20022;-66
2022/07/24 08:10:01;;;;;;;2.05;0.77;;;;;;;18.96;52.93;101499.25;7397153;19;20082;-66
2022/07/24 08:12:30;;;;;;;5.22;1.15;;;;;;;19.02;52.96;101486.53;7399502;19;20018;-64
2022/07/24 08:15:01;;;;;;;2.33;0.98;;;;;;;19.08;52.82;101487.19;7397916;19;20028;-64
2022/07/24 08:17:29;;;;;;;0.98;0.80;;;;;;;19.16;51.84;101485.88;7397341;19;20071;-65
2022/07/24 08:19:58;;;;;;;1.55;1.00;;;;;;;19.23;51.91;101483.81;7396965;19;20019;-65
2022/07/24 08:22:26;;;;;;;1.73;0.90;;;;;;;19.31;51.83;101488.75;7396789;19;20019;-65
2022/07/24 08:24:55;;;;;;;3.10;1.30;;;;;;;19.39;51.25;101483.09;7398696;19;20486;-65
2022/07/24 08:27:23;;;;;;;1.15;1.05;;;;;;;19.46;51.67;101485.41;7398199;19;20046;-65
2022/07/24 08:29:52;;;;;;;1.45;0.98;;;;;;;19.52;51.30;101473.59;7398509;19;20018;-65
2022/07/24 08:32:23;;;;;;;2.17;0.73;;;;;;;19.58;51.32;101469.78;7396238;19;20086;-67
2022/07/24 08:34:52;;;;;;;2.40;1.20;;;;;;;19.63;50.80;101471.28;7399233;19;20404;-65
2022/07/24 08:37:21;;;;;;;1.40;0.90;;;;;;;19.70;50.37;101467.38;7398136;19;20015;-65
2022/07/24 08:39:50;;;;;;;1.85;1.15;;;;;;;19.77;50.05;101461.75;7397113;19;20019;-66
2022/07/24 08:42:18;;;;;;;1.75;0.80;;;;;;;19.82;50.08;101465.94;7398669;19;20367;-65
2022/07/24 08:44:47;;;;;;;1.17;0.90;;;;;;;19.89;49.94;101463.88;7396968;19;20031;-65
2022/07/24 08:47:17;;;;;;;1.52;0.80;;;;;;;19.92;48.61;101465.50;7398104;19;20025;-65
2022/07/24 08:49:51;;;;;;;1.50;0.82;;;;;;;19.99;47.67;101473.13;7396456;19;20085;-66
2022/07/24 08:52:20;;;;;;;7.03;0.85;;;;;;;20.05;48.01;101461.28;7398987;19;20018;-65
2022/07/24 08:54:49;;;;;;;3.53;1.17;;;;;;;20.13;47.93;101474.19;7398772;19;20023;-65
2022/07/24 08:57:18;;;;;;;2.47;1.10;;;;;;;20.18;47.00;101472.16;7398100;19;20035;-65
2022/07/24 08:59:46;;;;;;;8.82;3.22;;;;;;;20.24;47.18;101471.00;7396158;19;20018;-65
2022/07/24 09:02:15;;;;;;;4.10;1.98;;;;;;;20.32;46.87;101469.69;7395752;19;20031;-65
2022/07/24 09:04:45;;;;;;;2.72;1.55;;;;;;;20.41;45.69;101476.34;7395783;19;20015;-66
2022/07/24 09:07:18;;;;;;;2.00;1.23;;;;;;;20.48;45.31;101469.72;7395788;19;20498;-65
2022/07/24 09:09:59;;;;;;;1.00;0.90;;;;;;;20.57;45.88;101473.72;7398676;19;20018;-65
2022/07/24 09:12:32;;;;;;;5.30;2.17;;;;;;;20.64;46.07;101469.78;7398954;19;20102;-64
2022/07/24 09:15:01;;;;;;;1.48;1.00;;;;;;;20.72;46.29;101463.22;7396042;19;20467;-64
2022/07/24 09:17:30;;;;;;;1.35;0.70;;;;;;;20.82;46.06;101467.13;7397192;19;20196;-65
2022/07/24 09:20:00;;;;;;;1.42;0.85;;;;;;;20.91;45.49;101463.09;7395684;19;20018;-66
2022/07/24 09:22:35;;;;;;;1.73;1.30;;;;;;;20.96;45.48;101459.22;7398207;19;20032;-66
2022/07/24 09:25:13;;;;;;;3.20;1.45;;;;;;;21.05;45.23;101465.03;7398037;19;20102;-66
2022/07/24 09:27:44;;;;;;;5.68;1.20;;;;;;;21.13;45.54;101460.16;7395670;19;20399;-65
2022/07/24 09:30:25;;;;;;;6.00;1.77;;;;;;;21.21;45.56;101452.56;7397866;19;20071;-65
2022/07/24 09:32:55;;;;;;;2.80;1.00;;;;;;;21.29;45.45;101453.00;7395819;19;20026;-66
2022/07/24 09:35:27;;;;;;;3.72;1.75;;;;;;;21.39;45.00;101452.50;7396928;19;20342;-66
2022/07/24 09:38:02;;;;;;;5.28;1.15;;;;;;;21.48;44.15;101452.84;7394576;19;20019;-66
2022/07/24 09:40:34;;;;;;;1.77;0.90;;;;;;;21.56;45.00;101448.88;7395459;19;20010;-66
2022/07/24 09:43:18;;;;;;;2.97;0.90;;;;;;;21.57;42.91;101454.16;7394340;19;20090;-66
2022/07/24 09:46:01;;;;;;;1.05;0.82;;;;;;;21.64;44.17;101444.81;7395048;19;20035;-66
2022/07/24 09:48:32;;;;;;;1.60;1.00;;;;;;;21.69;43.98;101441.91;7396109;19;20018;-66
2022/07/24 09:51:03;;;;;;;4.30;1.70;;;;;;;21.78;44.36;101445.84;7395646;19;20367;-66
2022/07/24 09:53:35;;;;;;;1.50;1.10;;;;;;;21.86;43.71;101448.06;7395402;19;20039;-66
2022/07/24 09:56:07;;;;;;;1.87;1.00;;;;;;;21.91;43.76;101441.53;7394557;19;20074;-66
2022/07/24 09:58:37;;;;;;;1.17;0.80;;;;;;;22.02;43.55;101445.38;7394835;19;20490;-70
2022/07/24 10:01:08;;;;;;;1.17;0.88;;;;;;;22.09;43.82;101436.91;7397023;19;20019;-66
2022/07/24 10:03:38;;;;;;;2.95;2.03;;;;;;;22.18;43.50;101438.16;7396184;19;20490;-67
2022/07/24 10:06:10;;;;;;;1.42;1.20;;;;;;;22.26;43.05;101429.69;7396964;19;20022;-66
2022/07/24 10:08:43;;;;;;;2.00;1.13;;;;;;;22.35;42.63;101438.97;7394635;19;20018;-69
2022/07/24 10:11:12;;;;;;;2.10;1.05;;;;;;;22.44;42.62;101444.66;7395015;19;20011;-66
2022/07/24 10:13:42;;;;;;;1.95;0.93;;;;;;;22.54;42.52;101433.38;7394417;19;20418;-66
2022/07/24 10:16:29;;;;;;;1.75;0.90;;;;;;;22.61;40.98;101432.91;7395992;19;20078;-67
2022/07/24 10:18:59;;;;;;;2.15;0.80;;;;;;;22.69;41.35;101434.25;7394251;19;20018;-66
2022/07/24 10:21:29;;;;;;;1.65;0.70;;;;;;;22.74;41.06;101429.47;7396797;19;20032;-66
2022/07/24 10:24:31;;;;;;;2.25;0.73;;;;;;;22.81;41.36;101424.59;7393413;19;20074;-66
2022/07/24 10:27:06;;;;;;;1.48;0.73;;;;;;;22.89;41.38;101423.16;7393307;19;20019;-67
2022/07/24 10:29:37;;;;;;;1.58;0.80;;;;;;;23.01;40.82;101415.31;7394217;19;20030;-67
2022/07/24 10:32:06;;;;;;;0.95;0.80;;;;;;;23.10;40.56;101410.22;7393832;19;20042;-66
2022/07/24 10:34:41;;;;;;;3.22;1.55;;;;;;;23.20;40.38;101409.66;7392400;19;20027;-66
2022/07/24 10:37:20;;;;;;;3.55;1.50;;;;;;;23.29;40.19;101405.53;7394657;19;20070;-66
2022/07/24 10:40:04;;;;;;;2.03;1.13;;;;;;;23.41;40.43;101407.41;7392965;19;20011;-66
2022/07/24 10:42:33;;;;;;;1.80;1.23;;;;;;;23.53;40.16;101403.03;7395626;19;20027;-65
2022/07/24 10:45:19;;;;;;;2.00;1.20;;;;;;;23.66;39.59;101401.28;7393547;19;20074;-65
2022/07/24 10:47:48;;;;;;;3.33;1.30;;;;;;;23.77;40.04;101389.88;7393069;19;20494;-66
2022/07/24 10:50:17;;;;;;;1.92;0.90;;;;;;;23.88;39.38;101397.16;7393285;19;20035;-66
2022/07/24 10:52:45;;;;;;;2.22;1.17;;;;;;;23.99;39.60;101404.50;7393464;19;20019;-66
2022/07/24 10:55:33;;;;;;;2.35;1.10;;;;;;;24.06;37.77;101403.97;7391932;19;20361;-67
2022/07/24 10:58:03;;;;;;;1.20;0.90;;;;;;;24.14;38.69;101400.78;7393289;19;20038;-66
2022/07/24 11:00:35;;;;;;;2.85;0.80;;;;;;;24.21;38.72;101396.72;7393343;19;20014;-66
2022/07/24 11:03:05;;;;;;;2.30;1.50;;;;;;;24.29;38.55;101400.66;7392688;19;20415;-65
2022/07/24 11:05:36;;;;;;;9.88;5.00;;;;;;;24.37;38.32;101395.63;7393110;19;20035;-65
2022/07/24 11:08:33;;;;;;;2.70;1.23;;;;;;;24.47;37.16;101396.69;7393882;19;20015;-66
2022/07/24 11:11:09;;;;;;;2.33;1.25;;;;;;;24.59;37.56;101391.44;7394107;19;20018;-66
2022/07/24 11:13:51;;;;;;;1.25;0.85;;;;;;;24.67;36.16;101389.13;7395031;19;20014;-66
2022/07/24 11:16:29;;;;;;;2.75;0.98;;;;;;;24.74;36.59;101382.31;7394667;19;20014;-68
2022/07/24 11:19:33;;;;;;;1.13;0.75;;;;;;;24.82;36.77;101385.31;7392692;19;20045;-68
2022/07/24 11:22:07;;;;;;;1.70;1.13;;;;;;;24.92;37.33;101381.97;7394150;19;20078;-68
2022/07/24 11:24:36;;;;;;;2.53;1.02;;;;;;;24.99;36.44;101386.75;7392268;19;20070;-68
2022/07/24 11:27:18;;;;;;;3.10;1.15;;;;;;;25.09;36.95;101375.38;7393834;19;20039;-68
2022/07/24 11:29:47;;;;;;;1.50;1.00;;;;;;;25.17;36.59;101368.47;7394090;19;20010;-68
2022/07/24 11:32:17;;;;;;;1.95;0.68;;;;;;;25.29;36.29;101363.16;7391197;19;20059;-68
2022/07/24 11:34:48;;;;;;;1.23;1.02;;;;;;;25.41;36.26;101358.72;7393978;19;20018;-68
2022/07/24 11:37:24;;;;;;;0.90;0.80;;;;;;;25.51;35.58;101362.41;7392678;19;20018;-68
2022/07/24 11:39:53;;;;;;;1.00;0.88;;;;;;;25.60;35.68;101355.50;7390938;19;20007;-69